Sunday, October 21, 2018, 10:11 PM EDT
Back to Local

KGNR, Greenville

Location: Greenville, ME, United States Lat: 45.467
Local Time: 10:11 PM EDT ( 2:11 GMT) Lon: -69.583
Time Zone: US/Eastern Elev: 1400 ft

Show me the last for .
Show Decoded

2018-10-21 21:56 METAR KGNR 220156Z AUTO 31013G27KT M01/M08 A2981 RMK AO1 PK WND 30027/0058
                 SLP111 T10111083 $ =
2018-10-21 20:56 METAR KGNR 220056Z AUTO 31021G29KT M01/M09 A2979 RMK AO1 PK WND 31034/0045
                 SLP103 T10111094 $ =
2018-10-21 19:56 METAR KGNR 212356Z AUTO 31018G32KT M01/M09 A2977 RMK AO1 PK WND 31032/2318
                 SLP099 T10061089 10011 21006 51023 $ =
2018-10-21 18:56 METAR KGNR 212256Z AUTO 31018G29KT M01/M08 A2976 RMK AO1 PK WND 32029/2254
                 SLP093 T10061083 $ =
2018-10-21 17:56 METAR KGNR 212156Z AUTO 33013G24KT M01/M07 A2972 RMK AO1 PK WND 32028/2121
                 SLP082 T10061072 $ =
2018-10-21 16:56 METAR KGNR 212056Z AUTO 32011G26KT 00/M07 A2970 RMK AO1 PK WND 32030/2027 SLP074
                 T00001072 53010 $ =
2018-10-21 15:56 METAR KGNR 211956Z AUTO 31014G24KT 00/M06 A2969 RMK AO1 PK WND 30030/1909 SLP070
                 T00001061 $ =
2018-10-21 14:56 METAR KGNR 211856Z AUTO 31015G23KT 01/M06 A2967 RMK AO1 PK WND 32026/1835 SLP062
                 T00111061 $ =
2018-10-21 13:56 METAR KGNR 211756Z AUTO 31015G23KT 01/M06 A2967 RMK AO1 SLP062 T00061056 10011
                 20000 51004 $ =
2018-10-21 12:56 METAR KGNR 211656Z AUTO 31012G22KT 01/M05 A2967 RMK AO1 PK WND 33029/1631 SLP061
                 T00111050 $ =
2018-10-21 11:56 METAR KGNR 211556Z AUTO 30009G18KT 01/M06 A2966 RMK AO1 PK WND 31027/1503 SLP058
                 T00111056 $ =
2018-10-21 10:56 METAR KGNR 211456Z AUTO 32016G25KT 270V330 01/M04 A2966 RMK AO1 PK WND
                 32029/1409 SLP057 T00061044 53012 =
2018-10-21 09:56 METAR KGNR 211356Z AUTO 31017G28KT 01/M04 A2964 RMK AO1 PK WND 34028/1350 SLP049
                 T00111044 =
2018-10-21 08:56 METAR KGNR 211256Z AUTO 31012G24KT 01/M04 A2963 RMK AO1 PK WND 32026/1238 SLP045
                 T00061044 =
2018-10-21 07:56 METAR KGNR 211156Z AUTO 31013G20KT 00/M04 A2962 RMK AO1 SLP042 T00001039 10033
                 21006 53023 =
2018-10-21 06:56 METAR KGNR 211056Z AUTO 31013G20KT 00/M03 A2959 RMK AO1 PK WND 31029/1004 SLP033
                 T00001033 =
2018-10-21 05:56 METAR KGNR 210956Z AUTO 31015G24KT 00/M03 A2955 RMK AO1 PK WND 32027/0934 SLP018
                 T00001033 =
2018-10-21 04:56 METAR KGNR 210856Z AUTO 30008G20KT 01/M02 A2955 RMK AO1 SLP016 T00111022 52010 =
2018-10-21 03:56 METAR KGNR 210756Z AUTO 31012G21KT 02/M02 A2954 RMK AO1 SLP011 T00171022 =
2018-10-21 02:56 METAR KGNR 210656Z AUTO 29008G14KT 02/M02 A2953 RMK AO1 SLP008 T00221022 =
2018-10-21 01:56 METAR KGNR 210556Z AUTO 30008G15KT 03/M02 A2952 RMK AO1 SLP003 T00331022 10083
                 20033 51007 =
2018-10-21 00:56 METAR KGNR 210456Z AUTO 31009G17KT 04/M01 A2951 RMK AO1 SLP002 T00391011
                 401500039 =
2018-10-20 23:56 METAR KGNR 210356Z AUTO 29009G17KT 06/M01 A2951 RMK AO1 SLP000 T00561011 =
2018-10-20 22:56 METAR KGNR 210256Z AUTO 31011KT 06/00 A2950 RMK AO1 SLP997 T00610000 53006 =

Support USWX by starting your Amazon purchase here.